sensor_id;sensor_type;location;lat;lon;timestamp;P1;durP1;ratioP1;P2;durP2;ratioP2
27213;SDS011;14723;55.814;37.460;2023-11-18T00:01:56;17.25;;;6.35;;
27213;SDS011;14723;55.814;37.460;2023-11-18T00:05:02;15.32;;;6.43;;
27213;SDS011;14723;55.814;37.460;2023-11-18T00:11:18;14.82;;;5.95;;
27213;SDS011;14723;55.814;37.460;2023-11-18T00:14:23;14.45;;;5.72;;
27213;SDS011;14723;55.814;37.460;2023-11-18T00:17:29;15.07;;;6.47;;
27213;SDS011;14723;55.814;37.460;2023-11-18T00:20:34;15.80;;;6.22;;
27213;SDS011;14723;55.814;37.460;2023-11-18T00:23:39;18.85;;;6.97;;
27213;SDS011;14723;55.814;37.460;2023-11-18T00:26:47;14.73;;;6.28;;
27213;SDS011;14723;55.814;37.460;2023-11-18T00:29:52;14.65;;;7.13;;
27213;SDS011;14723;55.814;37.460;2023-11-18T00:32:58;25.67;;;7.00;;
27213;SDS011;14723;55.814;37.460;2023-11-18T00:36:04;19.70;;;7.78;;
27213;SDS011;14723;55.814;37.460;2023-11-18T00:39:10;16.35;;;7.00;;
27213;SDS011;14723;55.814;37.460;2023-11-18T00:42:18;16.52;;;6.80;;
27213;SDS011;14723;55.814;37.460;2023-11-18T00:45:24;19.05;;;8.73;;
27213;SDS011;14723;55.814;37.460;2023-11-18T00:48:33;16.08;;;7.88;;
27213;SDS011;14723;55.814;37.460;2023-11-18T00:51:38;22.52;;;7.88;;
27213;SDS011;14723;55.814;37.460;2023-11-18T00:54:43;20.50;;;7.78;;
27213;SDS011;14723;55.814;37.460;2023-11-18T00:57:51;23.13;;;7.97;;
27213;SDS011;14723;55.814;37.460;2023-11-18T01:00:57;20.58;;;7.38;;
27213;SDS011;14723;55.814;37.460;2023-11-18T01:04:03;23.52;;;7.90;;
27213;SDS011;14723;55.814;37.460;2023-11-18T01:07:08;22.58;;;7.53;;
27213;SDS011;14723;55.814;37.460;2023-11-18T01:10:14;20.20;;;8.95;;
27213;SDS011;14723;55.814;37.460;2023-11-18T01:13:23;21.10;;;8.38;;
27213;SDS011;14723;55.814;37.460;2023-11-18T01:16:29;18.67;;;7.55;;
27213;SDS011;14723;55.814;37.460;2023-11-18T01:19:35;22.83;;;8.35;;
27213;SDS011;14723;55.814;37.460;2023-11-18T01:22:40;22.55;;;8.57;;
27213;SDS011;14723;55.814;37.460;2023-11-18T01:25:47;19.00;;;8.10;;
27213;SDS011;14723;55.814;37.460;2023-11-18T01:28:56;17.98;;;7.88;;
27213;SDS011;14723;55.814;37.460;2023-11-18T01:32:02;28.02;;;7.57;;
27213;SDS011;14723;55.814;37.460;2023-11-18T01:35:11;22.83;;;7.70;;
27213;SDS011;14723;55.814;37.460;2023-11-18T01:38:17;24.70;;;8.38;;
27213;SDS011;14723;55.814;37.460;2023-11-18T01:41:22;18.20;;;7.35;;
27213;SDS011;14723;55.814;37.460;2023-11-18T01:44:30;21.05;;;7.85;;
27213;SDS011;14723;55.814;37.460;2023-11-18T01:47:37;19.10;;;7.97;;
27213;SDS011;14723;55.814;37.460;2023-11-18T01:50:43;19.70;;;7.60;;
27213;SDS011;14723;55.814;37.460;2023-11-18T01:53:49;22.02;;;7.90;;
27213;SDS011;14723;55.814;37.460;2023-11-18T01:56:55;18.27;;;7.75;;
27213;SDS011;14723;55.814;37.460;2023-11-18T02:00:05;18.57;;;7.90;;
27213;SDS011;14723;55.814;37.460;2023-11-18T02:03:17;17.65;;;7.93;;
27213;SDS011;14723;55.814;37.460;2023-11-18T02:06:22;22.20;;;7.82;;
27213;SDS011;14723;55.814;37.460;2023-11-18T02:09:30;25.67;;;8.17;;
27213;SDS011;14723;55.814;37.460;2023-11-18T02:12:38;20.27;;;8.57;;
27213;SDS011;14723;55.814;37.460;2023-11-18T02:15:50;25.88;;;8.15;;
27213;SDS011;14723;55.814;37.460;2023-11-18T02:19:00;14.57;;;6.88;;
27213;SDS011;14723;55.814;37.460;2023-11-18T02:22:07;22.00;;;8.57;;
27213;SDS011;14723;55.814;37.460;2023-11-18T02:25:14;18.45;;;8.23;;
27213;SDS011;14723;55.814;37.460;2023-11-18T02:28:23;24.55;;;7.97;;
27213;SDS011;14723;55.814;37.460;2023-11-18T02:31:30;24.95;;;8.45;;
27213;SDS011;14723;55.814;37.460;2023-11-18T02:34:40;18.23;;;7.50;;
27213;SDS011;14723;55.814;37.460;2023-11-18T02:37:50;22.88;;;7.63;;
27213;SDS011;14723;55.814;37.460;2023-11-18T02:40:58;22.02;;;7.90;;
27213;SDS011;14723;55.814;37.460;2023-11-18T02:44:07;19.40;;;7.50;;
27213;SDS011;14723;55.814;37.460;2023-11-18T02:47:13;15.55;;;7.13;;
27213;SDS011;14723;55.814;37.460;2023-11-18T02:50:18;19.60;;;7.65;;
27213;SDS011;14723;55.814;37.460;2023-11-18T02:53:24;21.88;;;8.02;;
27213;SDS011;14723;55.814;37.460;2023-11-18T02:56:29;20.20;;;7.97;;
27213;SDS011;14723;55.814;37.460;2023-11-18T02:59:37;20.40;;;6.80;;
27213;SDS011;14723;55.814;37.460;2023-11-18T03:02:43;21.83;;;6.82;;
27213;SDS011;14723;55.814;37.460;2023-11-18T03:05:49;19.85;;;7.10;;
27213;SDS011;14723;55.814;37.460;2023-11-18T03:08:56;17.20;;;6.80;;
27213;SDS011;14723;55.814;37.460;2023-11-18T03:12:01;27.15;;;6.70;;
27213;SDS011;14723;55.814;37.460;2023-11-18T03:15:09;20.17;;;7.43;;
27213;SDS011;14723;55.814;37.460;2023-11-18T03:21:21;22.08;;;7.30;;
27213;SDS011;14723;55.814;37.460;2023-11-18T03:24:26;18.77;;;7.32;;
27213;SDS011;14723;55.814;37.460;2023-11-18T03:27:32;15.57;;;7.03;;
27213;SDS011;14723;55.814;37.460;2023-11-18T03:30:41;20.65;;;7.32;;
27213;SDS011;14723;55.814;37.460;2023-11-18T03:33:46;21.92;;;6.60;;
27213;SDS011;14723;55.814;37.460;2023-11-18T03:36:51;19.60;;;6.45;;
27213;SDS011;14723;55.814;37.460;2023-11-18T03:39:59;21.63;;;6.78;;
27213;SDS011;14723;55.814;37.460;2023-11-18T03:43:04;21.25;;;7.30;;
27213;SDS011;14723;55.814;37.460;2023-11-18T03:46:12;23.85;;;7.28;;
27213;SDS011;14723;55.814;37.460;2023-11-18T03:49:17;21.20;;;6.80;;
27213;SDS011;14723;55.814;37.460;2023-11-18T03:52:24;22.17;;;7.13;;
27213;SDS011;14723;55.814;37.460;2023-11-18T03:55:29;17.63;;;7.45;;
27213;SDS011;14723;55.814;37.460;2023-11-18T03:58:35;17.85;;;7.00;;
27213;SDS011;14723;55.814;37.460;2023-11-18T04:01:45;25.60;;;7.32;;
27213;SDS011;14723;55.814;37.460;2023-11-18T04:04:53;21.38;;;6.57;;
27213;SDS011;14723;55.814;37.460;2023-11-18T04:07:58;28.27;;;6.72;;
27213;SDS011;14723;55.814;37.460;2023-11-18T04:11:03;18.15;;;7.32;;
27213;SDS011;14723;55.814;37.460;2023-11-18T04:14:09;24.50;;;8.10;;
27213;SDS011;14723;55.814;37.460;2023-11-18T04:17:17;20.38;;;7.25;;
27213;SDS011;14723;55.814;37.460;2023-11-18T04:20:23;20.17;;;7.70;;
27213;SDS011;14723;55.814;37.460;2023-11-18T04:23:29;24.85;;;7.15;;
27213;SDS011;14723;55.814;37.460;2023-11-18T04:26:35;19.10;;;7.75;;
27213;SDS011;14723;55.814;37.460;2023-11-18T04:29:40;25.83;;;7.10;;
27213;SDS011;14723;55.814;37.460;2023-11-18T04:32:48;22.55;;;7.15;;
27213;SDS011;14723;55.814;37.460;2023-11-18T04:35:54;18.77;;;7.15;;
27213;SDS011;14723;55.814;37.460;2023-11-18T04:38:59;24.75;;;7.30;;
27213;SDS011;14723;55.814;37.460;2023-11-18T04:42:05;30.45;;;7.53;;
27213;SDS011;14723;55.814;37.460;2023-11-18T04:45:10;20.20;;;6.65;;
27213;SDS011;14723;55.814;37.460;2023-11-18T04:48:19;21.08;;;7.45;;
27213;SDS011;14723;55.814;37.460;2023-11-18T04:51:24;26.55;;;7.97;;
27213;SDS011;14723;55.814;37.460;2023-11-18T04:54:30;19.42;;;7.50;;
27213;SDS011;14723;55.814;37.460;2023-11-18T04:57:36;23.05;;;6.88;;
27213;SDS011;14723;55.814;37.460;2023-11-18T05:00:41;24.67;;;8.07;;
27213;SDS011;14723;55.814;37.460;2023-11-18T05:03:49;27.70;;;7.65;;
27213;SDS011;14723;55.814;37.460;2023-11-18T05:09:59;24.95;;;7.85;;
27213;SDS011;14723;55.814;37.460;2023-11-18T05:13:05;24.05;;;6.30;;
27213;SDS011;14723;55.814;37.460;2023-11-18T05:16:11;20.83;;;7.28;;
27213;SDS011;14723;55.814;37.460;2023-11-18T05:19:19;21.75;;;7.85;;
27213;SDS011;14723;55.814;37.460;2023-11-18T05:22:24;22.98;;;7.47;;
27213;SDS011;14723;55.814;37.460;2023-11-18T05:25:30;30.30;;;9.50;;
27213;SDS011;14723;55.814;37.460;2023-11-18T05:28:35;27.95;;;7.40;;
27213;SDS011;14723;55.814;37.460;2023-11-18T05:31:40;18.35;;;7.90;;
27213;SDS011;14723;55.814;37.460;2023-11-18T05:34:48;31.35;;;8.25;;
27213;SDS011;14723;55.814;37.460;2023-11-18T05:37:56;27.00;;;7.90;;
27213;SDS011;14723;55.814;37.460;2023-11-18T05:41:02;24.00;;;9.05;;
27213;SDS011;14723;55.814;37.460;2023-11-18T05:44:08;21.40;;;7.80;;
27213;SDS011;14723;55.814;37.460;2023-11-18T05:47:19;28.23;;;9.27;;
27213;SDS011;14723;55.814;37.460;2023-11-18T05:50:27;26.33;;;8.98;;
27213;SDS011;14723;55.814;37.460;2023-11-18T05:53:33;30.50;;;8.95;;
27213;SDS011;14723;55.814;37.460;2023-11-18T05:56:39;35.53;;;9.50;;
27213;SDS011;14723;55.814;37.460;2023-11-18T05:59:45;35.45;;;9.27;;
27213;SDS011;14723;55.814;37.460;2023-11-18T06:02:50;36.30;;;9.88;;
27213;SDS011;14723;55.814;37.460;2023-11-18T06:05:58;43.30;;;9.75;;
27213;SDS011;14723;55.814;37.460;2023-11-18T06:09:04;24.98;;;8.57;;
27213;SDS011;14723;55.814;37.460;2023-11-18T06:12:11;25.58;;;8.70;;
27213;SDS011;14723;55.814;37.460;2023-11-18T06:15:20;34.78;;;8.18;;
27213;SDS011;14723;55.814;37.460;2023-11-18T06:18:25;25.90;;;8.38;;
27213;SDS011;14723;55.814;37.460;2023-11-18T06:21:33;31.35;;;8.23;;
27213;SDS011;14723;55.814;37.460;2023-11-18T06:24:38;28.25;;;8.77;;
27213;SDS011;14723;55.814;37.460;2023-11-18T06:27:45;33.90;;;9.07;;
27213;SDS011;14723;55.814;37.460;2023-11-18T06:30:50;32.42;;;7.53;;
27213;SDS011;14723;55.814;37.460;2023-11-18T06:33:55;32.15;;;8.13;;
27213;SDS011;14723;55.814;37.460;2023-11-18T06:37:03;25.88;;;7.63;;
27213;SDS011;14723;55.814;37.460;2023-11-18T06:43:19;21.23;;;7.57;;
27213;SDS011;14723;55.814;37.460;2023-11-18T06:46:24;26.13;;;7.32;;
27213;SDS011;14723;55.814;37.460;2023-11-18T06:49:31;18.73;;;7.03;;
27213;SDS011;14723;55.814;37.460;2023-11-18T06:52:39;25.77;;;6.90;;
27213;SDS011;14723;55.814;37.460;2023-11-18T06:55:48;24.58;;;7.28;;
27213;SDS011;14723;55.814;37.460;2023-11-18T06:58:54;18.45;;;7.22;;
27213;SDS011;14723;55.814;37.460;2023-11-18T07:01:59;26.17;;;7.38;;
27213;SDS011;14723;55.814;37.460;2023-11-18T07:05:08;24.27;;;7.57;;
27213;SDS011;14723;55.814;37.460;2023-11-18T07:08:17;24.55;;;8.68;;
27213;SDS011;14723;55.814;37.460;2023-11-18T07:11:22;32.45;;;10.45;;
27213;SDS011;14723;55.814;37.460;2023-11-18T07:14:28;31.98;;;10.15;;
27213;SDS011;14723;55.814;37.460;2023-11-18T07:17:34;35.60;;;10.02;;
27213;SDS011;14723;55.814;37.460;2023-11-18T07:20:39;25.52;;;9.13;;
27213;SDS011;14723;55.814;37.460;2023-11-18T07:23:47;33.83;;;8.82;;
27213;SDS011;14723;55.814;37.460;2023-11-18T07:26:52;32.58;;;8.60;;
27213;SDS011;14723;55.814;37.460;2023-11-18T07:29:57;25.05;;;8.48;;
27213;SDS011;14723;55.814;37.460;2023-11-18T07:33:04;25.88;;;7.97;;
27213;SDS011;14723;55.814;37.460;2023-11-18T07:36:10;20.80;;;7.93;;
27213;SDS011;14723;55.814;37.460;2023-11-18T07:39:18;22.25;;;8.07;;
27213;SDS011;14723;55.814;37.460;2023-11-18T07:42:30;17.08;;;7.57;;
27213;SDS011;14723;55.814;37.460;2023-11-18T07:45:36;26.27;;;7.35;;
27213;SDS011;14723;55.814;37.460;2023-11-18T07:48:42;22.08;;;7.25;;
27213;SDS011;14723;55.814;37.460;2023-11-18T07:51:48;20.77;;;6.82;;
27213;SDS011;14723;55.814;37.460;2023-11-18T07:54:56;32.38;;;7.38;;
27213;SDS011;14723;55.814;37.460;2023-11-18T07:58:01;17.17;;;6.15;;
27213;SDS011;14723;55.814;37.460;2023-11-18T08:01:07;19.55;;;6.32;;
27213;SDS011;14723;55.814;37.460;2023-11-18T08:04:13;24.65;;;5.47;;
27213;SDS011;14723;55.814;37.460;2023-11-18T08:07:19;14.85;;;5.53;;
27213;SDS011;14723;55.814;37.460;2023-11-18T08:10:27;20.38;;;7.07;;
27213;SDS011;14723;55.814;37.460;2023-11-18T08:13:35;16.92;;;5.47;;
27213;SDS011;14723;55.814;37.460;2023-11-18T08:16:40;18.08;;;5.45;;
27213;SDS011;14723;55.814;37.460;2023-11-18T08:19:46;19.08;;;5.40;;
27213;SDS011;14723;55.814;37.460;2023-11-18T08:22:52;12.45;;;4.60;;
27213;SDS011;14723;55.814;37.460;2023-11-18T08:26:00;12.77;;;5.82;;
27213;SDS011;14723;55.814;37.460;2023-11-18T08:29:05;12.70;;;4.20;;
27213;SDS011;14723;55.814;37.460;2023-11-18T08:32:11;16.85;;;5.03;;
27213;SDS011;14723;55.814;37.460;2023-11-18T08:35:16;28.10;;;5.85;;
27213;SDS011;14723;55.814;37.460;2023-11-18T08:38:23;12.63;;;5.05;;
27213;SDS011;14723;55.814;37.460;2023-11-18T08:41:33;13.48;;;4.88;;
27213;SDS011;14723;55.814;37.460;2023-11-18T08:44:38;19.15;;;5.47;;
27213;SDS011;14723;55.814;37.460;2023-11-18T08:47:43;15.52;;;4.97;;
27213;SDS011;14723;55.814;37.460;2023-11-18T08:50:49;10.95;;;3.85;;
27213;SDS011;14723;55.814;37.460;2023-11-18T08:53:54;12.20;;;4.07;;
27213;SDS011;14723;55.814;37.460;2023-11-18T08:57:03;13.48;;;5.15;;
27213;SDS011;14723;55.814;37.460;2023-11-18T09:00:21;16.83;;;5.30;;
27213;SDS011;14723;55.814;37.460;2023-11-18T09:03:39;21.30;;;5.22;;
27213;SDS011;14723;55.814;37.460;2023-11-18T09:06:51;19.13;;;6.43;;
27213;SDS011;14723;55.814;37.460;2023-11-18T09:10:02;26.00;;;9.43;;
27213;SDS011;14723;55.814;37.460;2023-11-18T09:13:10;17.73;;;5.72;;
27213;SDS011;14723;55.814;37.460;2023-11-18T09:16:15;24.15;;;6.30;;
27213;SDS011;14723;55.814;37.460;2023-11-18T09:19:23;23.73;;;6.45;;
27213;SDS011;14723;55.814;37.460;2023-11-18T09:22:28;16.23;;;6.13;;
27213;SDS011;14723;55.814;37.460;2023-11-18T09:25:35;19.13;;;5.85;;
27213;SDS011;14723;55.814;37.460;2023-11-18T09:28:45;16.05;;;5.60;;
27213;SDS011;14723;55.814;37.460;2023-11-18T09:31:52;14.25;;;4.53;;
27213;SDS011;14723;55.814;37.460;2023-11-18T09:34:57;18.45;;;4.38;;
27213;SDS011;14723;55.814;37.460;2023-11-18T09:38:11;18.33;;;4.90;;
27213;SDS011;14723;55.814;37.460;2023-11-18T09:41:16;12.18;;;4.63;;
27213;SDS011;14723;55.814;37.460;2023-11-18T09:44:24;13.75;;;4.53;;
27213;SDS011;14723;55.814;37.460;2023-11-18T09:47:30;18.10;;;4.90;;
27213;SDS011;14723;55.814;37.460;2023-11-18T09:50:37;18.05;;;5.03;;
27213;SDS011;14723;55.814;37.460;2023-11-18T09:53:45;12.25;;;4.93;;
27213;SDS011;14723;55.814;37.460;2023-11-18T09:56:55;12.80;;;4.85;;
27213;SDS011;14723;55.814;37.460;2023-11-18T10:00:15;13.43;;;4.85;;
27213;SDS011;14723;55.814;37.460;2023-11-18T10:03:29;22.42;;;4.97;;
27213;SDS011;14723;55.814;37.460;2023-11-18T10:06:40;24.38;;;4.72;;
27213;SDS011;14723;55.814;37.460;2023-11-18T10:09:48;12.43;;;4.75;;
27213;SDS011;14723;55.814;37.460;2023-11-18T10:12:59;14.77;;;4.70;;
27213;SDS011;14723;55.814;37.460;2023-11-18T10:16:09;11.77;;;3.97;;
27213;SDS011;14723;55.814;37.460;2023-11-18T10:19:15;10.13;;;4.28;;
27213;SDS011;14723;55.814;37.460;2023-11-18T10:22:24;18.05;;;4.68;;
27213;SDS011;14723;55.814;37.460;2023-11-18T10:25:30;13.52;;;3.92;;
27213;SDS011;14723;55.814;37.460;2023-11-18T10:28:36;14.20;;;4.57;;
27213;SDS011;14723;55.814;37.460;2023-11-18T10:31:46;13.88;;;4.78;;
27213;SDS011;14723;55.814;37.460;2023-11-18T10:34:51;14.57;;;4.35;;
27213;SDS011;14723;55.814;37.460;2023-11-18T10:37:56;18.60;;;5.32;;
27213;SDS011;14723;55.814;37.460;2023-11-18T10:41:02;21.25;;;5.30;;
27213;SDS011;14723;55.814;37.460;2023-11-18T10:44:08;19.02;;;4.82;;
27213;SDS011;14723;55.814;37.460;2023-11-18T10:47:20;18.42;;;5.15;;
27213;SDS011;14723;55.814;37.460;2023-11-18T10:50:25;13.93;;;4.60;;
27213;SDS011;14723;55.814;37.460;2023-11-18T10:53:34;12.63;;;4.45;;
27213;SDS011;14723;55.814;37.460;2023-11-18T10:56:46;13.45;;;5.22;;
27213;SDS011;14723;55.814;37.460;2023-11-18T11:00:00;18.42;;;4.40;;
27213;SDS011;14723;55.814;37.460;2023-11-18T11:03:18;12.50;;;4.70;;
27213;SDS011;14723;55.814;37.460;2023-11-18T11:06:26;12.73;;;4.38;;
27213;SDS011;14723;55.814;37.460;2023-11-18T11:09:32;16.08;;;5.05;;
27213;SDS011;14723;55.814;37.460;2023-11-18T11:12:46;16.75;;;4.40;;
27213;SDS011;14723;55.814;37.460;2023-11-18T11:15:54;17.02;;;4.70;;
27213;SDS011;14723;55.814;37.460;2023-11-18T11:19:04;10.65;;;4.07;;
27213;SDS011;14723;55.814;37.460;2023-11-18T11:22:11;13.20;;;4.32;;
27213;SDS011;14723;55.814;37.460;2023-11-18T11:25:24;14.23;;;5.00;;
27213;SDS011;14723;55.814;37.460;2023-11-18T11:28:37;15.95;;;5.13;;
27213;SDS011;14723;55.814;37.460;2023-11-18T11:31:48;16.33;;;4.85;;
27213;SDS011;14723;55.814;37.460;2023-11-18T11:35:02;12.85;;;4.38;;
27213;SDS011;14723;55.814;37.460;2023-11-18T11:38:12;17.45;;;5.10;;
27213;SDS011;14723;55.814;37.460;2023-11-18T11:41:19;17.88;;;4.75;;
27213;SDS011;14723;55.814;37.460;2023-11-18T11:44:29;11.90;;;4.22;;
27213;SDS011;14723;55.814;37.460;2023-11-18T11:47:43;15.95;;;5.00;;
27213;SDS011;14723;55.814;37.460;2023-11-18T11:54:20;17.20;;;4.45;;
27213;SDS011;14723;55.814;37.460;2023-11-18T11:57:26;11.88;;;4.78;;
27213;SDS011;14723;55.814;37.460;2023-11-18T12:00:36;16.88;;;4.63;;
27213;SDS011;14723;55.814;37.460;2023-11-18T12:03:46;19.55;;;4.22;;
27213;SDS011;14723;55.814;37.460;2023-11-18T12:06:56;12.00;;;4.72;;
27213;SDS011;14723;55.814;37.460;2023-11-18T12:10:19;14.68;;;4.82;;
27213;SDS011;14723;55.814;37.460;2023-11-18T12:13:25;17.83;;;5.00;;
27213;SDS011;14723;55.814;37.460;2023-11-18T12:19:56;14.52;;;5.32;;
27213;SDS011;14723;55.814;37.460;2023-11-18T12:23:15;22.63;;;5.50;;
27213;SDS011;14723;55.814;37.460;2023-11-18T12:26:37;12.02;;;4.78;;
27213;SDS011;14723;55.814;37.460;2023-11-18T12:29:42;21.20;;;5.40;;
27213;SDS011;14723;55.814;37.460;2023-11-18T12:33:01;18.63;;;5.13;;
27213;SDS011;14723;55.814;37.460;2023-11-18T12:43:24;20.05;;;5.88;;
27213;SDS011;14723;55.814;37.460;2023-11-18T12:46:47;14.63;;;5.20;;
27213;SDS011;14723;55.814;37.460;2023-11-18T12:49:56;20.80;;;6.20;;
27213;SDS011;14723;55.814;37.460;2023-11-18T12:53:03;30.08;;;7.97;;
27213;SDS011;14723;55.814;37.460;2023-11-18T12:56:09;26.25;;;6.97;;
27213;SDS011;14723;55.814;37.460;2023-11-18T12:59:18;20.05;;;6.55;;
27213;SDS011;14723;55.814;37.460;2023-11-18T13:05:29;30.65;;;6.93;;
27213;SDS011;14723;55.814;37.460;2023-11-18T13:08:35;16.90;;;6.13;;
27213;SDS011;14723;55.814;37.460;2023-11-18T13:11:40;20.33;;;6.28;;
27213;SDS011;14723;55.814;37.460;2023-11-18T13:14:49;20.42;;;6.97;;
27213;SDS011;14723;55.814;37.460;2023-11-18T13:17:58;19.77;;;6.55;;
27213;SDS011;14723;55.814;37.460;2023-11-18T13:21:04;17.85;;;6.57;;
27213;SDS011;14723;55.814;37.460;2023-11-18T13:24:09;30.65;;;6.10;;
27213;SDS011;14723;55.814;37.460;2023-11-18T13:27:15;22.33;;;7.03;;
27213;SDS011;14723;55.814;37.460;2023-11-18T13:30:23;18.48;;;6.63;;
27213;SDS011;14723;55.814;37.460;2023-11-18T13:33:28;19.00;;;6.97;;
27213;SDS011;14723;55.814;37.460;2023-11-18T13:36:33;33.95;;;8.73;;
27213;SDS011;14723;55.814;37.460;2023-11-18T13:39:40;29.25;;;8.93;;
27213;SDS011;14723;55.814;37.460;2023-11-18T13:43:01;33.90;;;8.60;;
27213;SDS011;14723;55.814;37.460;2023-11-18T13:49:15;49.28;;;10.95;;
27213;SDS011;14723;55.814;37.460;2023-11-18T13:52:20;30.67;;;10.45;;
27213;SDS011;14723;55.814;37.460;2023-11-18T13:55:27;40.00;;;10.70;;
27213;SDS011;14723;55.814;37.460;2023-11-18T13:58:34;40.13;;;11.95;;
27213;SDS011;14723;55.814;37.460;2023-11-18T14:01:40;24.25;;;10.98;;
27213;SDS011;14723;55.814;37.460;2023-11-18T14:04:49;35.25;;;11.38;;
27213;SDS011;14723;55.814;37.460;2023-11-18T14:07:58;29.75;;;11.27;;
27213;SDS011;14723;55.814;37.460;2023-11-18T14:11:12;34.03;;;10.75;;
27213;SDS011;14723;55.814;37.460;2023-11-18T14:14:19;33.38;;;11.35;;
27213;SDS011;14723;55.814;37.460;2023-11-18T14:17:24;29.67;;;10.55;;
27213;SDS011;14723;55.814;37.460;2023-11-18T14:20:32;35.75;;;11.10;;
27213;SDS011;14723;55.814;37.460;2023-11-18T14:23:37;34.45;;;11.98;;
27213;SDS011;14723;55.814;37.460;2023-11-18T14:26:43;36.67;;;11.93;;
27213;SDS011;14723;55.814;37.460;2023-11-18T14:29:49;35.40;;;11.32;;
27213;SDS011;14723;55.814;37.460;2023-11-18T14:32:54;35.30;;;11.70;;
27213;SDS011;14723;55.814;37.460;2023-11-18T14:36:02;40.80;;;11.90;;
27213;SDS011;14723;55.814;37.460;2023-11-18T14:39:08;40.05;;;11.20;;
27213;SDS011;14723;55.814;37.460;2023-11-18T14:42:20;37.58;;;11.07;;
27213;SDS011;14723;55.814;37.460;2023-11-18T14:45:25;36.05;;;11.90;;
27213;SDS011;14723;55.814;37.460;2023-11-18T14:48:31;35.08;;;10.77;;
27213;SDS011;14723;55.814;37.460;2023-11-18T14:51:39;39.63;;;11.68;;
27213;SDS011;14723;55.814;37.460;2023-11-18T14:54:45;39.60;;;11.13;;
27213;SDS011;14723;55.814;37.460;2023-11-18T14:57:53;33.70;;;9.98;;
27213;SDS011;14723;55.814;37.460;2023-11-18T15:00:59;27.85;;;10.52;;
27213;SDS011;14723;55.814;37.460;2023-11-18T15:04:04;36.45;;;12.77;;
27213;SDS011;14723;55.814;37.460;2023-11-18T15:07:14;31.40;;;10.57;;
27213;SDS011;14723;55.814;37.460;2023-11-18T15:10:20;35.47;;;11.23;;
27213;SDS011;14723;55.814;37.460;2023-11-18T15:13:25;24.42;;;11.30;;
27213;SDS011;14723;55.814;37.460;2023-11-18T15:16:30;38.33;;;12.82;;
27213;SDS011;14723;55.814;37.460;2023-11-18T15:19:36;27.25;;;11.27;;
27213;SDS011;14723;55.814;37.460;2023-11-18T15:22:44;39.58;;;11.18;;
27213;SDS011;14723;55.814;37.460;2023-11-18T15:25:49;33.10;;;10.25;;
27213;SDS011;14723;55.814;37.460;2023-11-18T15:28:55;29.42;;;11.35;;
27213;SDS011;14723;55.814;37.460;2023-11-18T15:32:01;44.83;;;11.98;;
27213;SDS011;14723;55.814;37.460;2023-11-18T15:35:07;32.75;;;11.25;;
27213;SDS011;14723;55.814;37.460;2023-11-18T15:41:28;40.95;;;11.60;;
27213;SDS011;14723;55.814;37.460;2023-11-18T15:44:33;39.00;;;13.70;;
27213;SDS011;14723;55.814;37.460;2023-11-18T15:47:40;36.53;;;14.32;;
27213;SDS011;14723;55.814;37.460;2023-11-18T15:50:47;48.25;;;13.95;;
27213;SDS011;14723;55.814;37.460;2023-11-18T15:53:52;39.28;;;13.55;;
27213;SDS011;14723;55.814;37.460;2023-11-18T15:57:00;39.33;;;12.57;;
27213;SDS011;14723;55.814;37.460;2023-11-18T16:00:06;42.15;;;12.30;;
27213;SDS011;14723;55.814;37.460;2023-11-18T16:03:17;36.28;;;11.60;;
27213;SDS011;14723;55.814;37.460;2023-11-18T16:06:22;35.55;;;11.68;;
27213;SDS011;14723;55.814;37.460;2023-11-18T16:09:28;44.50;;;12.80;;
27213;SDS011;14723;55.814;37.460;2023-11-18T16:12:36;33.92;;;12.00;;
27213;SDS011;14723;55.814;37.460;2023-11-18T16:15:41;35.63;;;12.27;;
27213;SDS011;14723;55.814;37.460;2023-11-18T16:18:46;40.10;;;12.65;;
27213;SDS011;14723;55.814;37.460;2023-11-18T16:21:53;44.83;;;12.20;;
27213;SDS011;14723;55.814;37.460;2023-11-18T16:24:59;30.80;;;11.68;;
27213;SDS011;14723;55.814;37.460;2023-11-18T16:28:09;35.40;;;11.13;;
27213;SDS011;14723;55.814;37.460;2023-11-18T16:31:15;35.08;;;12.77;;
27213;SDS011;14723;55.814;37.460;2023-11-18T16:34:21;33.40;;;11.45;;
27213;SDS011;14723;55.814;37.460;2023-11-18T16:37:27;36.97;;;12.57;;
27213;SDS011;14723;55.814;37.460;2023-11-18T16:40:33;42.35;;;13.35;;
27213;SDS011;14723;55.814;37.460;2023-11-18T16:43:41;43.45;;;13.43;;
27213;SDS011;14723;55.814;37.460;2023-11-18T16:46:47;44.22;;;13.18;;
27213;SDS011;14723;55.814;37.460;2023-11-18T16:49:54;35.65;;;13.70;;
27213;SDS011;14723;55.814;37.460;2023-11-18T16:53:05;36.75;;;13.77;;
27213;SDS011;14723;55.814;37.460;2023-11-18T16:56:13;43.45;;;13.20;;
27213;SDS011;14723;55.814;37.460;2023-11-18T16:59:21;36.63;;;12.20;;
27213;SDS011;14723;55.814;37.460;2023-11-18T17:02:26;36.63;;;12.38;;
27213;SDS011;14723;55.814;37.460;2023-11-18T17:05:32;30.50;;;10.88;;
27213;SDS011;14723;55.814;37.460;2023-11-18T17:08:38;36.25;;;12.43;;
27213;SDS011;14723;55.814;37.460;2023-11-18T17:11:46;42.70;;;13.27;;
27213;SDS011;14723;55.814;37.460;2023-11-18T17:14:54;50.03;;;12.77;;
27213;SDS011;14723;55.814;37.460;2023-11-18T17:17:59;39.03;;;13.40;;
27213;SDS011;14723;55.814;37.460;2023-11-18T17:21:06;38.47;;;12.82;;
27213;SDS011;14723;55.814;37.460;2023-11-18T17:24:13;46.63;;;13.60;;
27213;SDS011;14723;55.814;37.460;2023-11-18T17:27:18;36.38;;;13.70;;
27213;SDS011;14723;55.814;37.460;2023-11-18T17:30:29;43.40;;;13.93;;
27213;SDS011;14723;55.814;37.460;2023-11-18T17:33:36;39.78;;;13.63;;
27213;SDS011;14723;55.814;37.460;2023-11-18T17:36:44;43.20;;;13.77;;
27213;SDS011;14723;55.814;37.460;2023-11-18T17:39:49;57.78;;;14.70;;
27213;SDS011;14723;55.814;37.460;2023-11-18T17:42:54;41.47;;;13.38;;
27213;SDS011;14723;55.814;37.460;2023-11-18T17:46:02;40.13;;;11.27;;
27213;SDS011;14723;55.814;37.460;2023-11-18T17:49:10;35.70;;;10.43;;
27213;SDS011;14723;55.814;37.460;2023-11-18T17:52:16;36.53;;;12.23;;
27213;SDS011;14723;55.814;37.460;2023-11-18T17:55:21;43.63;;;11.88;;
27213;SDS011;14723;55.814;37.460;2023-11-18T17:58:26;42.83;;;11.35;;
27213;SDS011;14723;55.814;37.460;2023-11-18T18:01:34;32.40;;;10.95;;
27213;SDS011;14723;55.814;37.460;2023-11-18T18:04:39;41.90;;;13.15;;
27213;SDS011;14723;55.814;37.460;2023-11-18T18:07:45;34.85;;;11.77;;
27213;SDS011;14723;55.814;37.460;2023-11-18T18:10:50;40.13;;;13.00;;
27213;SDS011;14723;55.814;37.460;2023-11-18T18:13:56;37.03;;;10.90;;
27213;SDS011;14723;55.814;37.460;2023-11-18T18:17:04;40.45;;;12.25;;
27213;SDS011;14723;55.814;37.460;2023-11-18T18:20:09;31.75;;;10.85;;
27213;SDS011;14723;55.814;37.460;2023-11-18T18:23:16;47.97;;;11.98;;
27213;SDS011;14723;55.814;37.460;2023-11-18T18:26:21;34.90;;;11.27;;
27213;SDS011;14723;55.814;37.460;2023-11-18T18:29:27;46.95;;;14.27;;
27213;SDS011;14723;55.814;37.460;2023-11-18T18:32:35;38.13;;;12.90;;
27213;SDS011;14723;55.814;37.460;2023-11-18T18:35:40;35.22;;;11.75;;
27213;SDS011;14723;55.814;37.460;2023-11-18T18:38:48;40.38;;;13.35;;
27213;SDS011;14723;55.814;37.460;2023-11-18T18:41:55;34.85;;;13.10;;
27213;SDS011;14723;55.814;37.460;2023-11-18T18:45:01;40.63;;;13.45;;
27213;SDS011;14723;55.814;37.460;2023-11-18T18:48:09;44.13;;;13.25;;